Hlavní strana
METAR-TAF:

METAR-TAF

Letiště :

Florencie, Itálie

zeměpisná šířka: 43-48N, zeměpisná délka: 011-12E, výška: 40 m

Aktuální stav počasí

Zpráva byla vytvořena před 29 minutami, v 09:50 UTC
Severozápadní vítr 4 kt, proměnlivý mezi jihozápadním a severoseverovýchodním
Teplota 31°C
Vlhkost vzduchu 43%
Tlak 1016 hPa
Viditelnost 10 km a více
Žádná oblačnost pod 1500 m, nevyskytují se cumulonimby.

METAR: LIRQ 180950Z 31004KT 230V020 CAVOK 31/17 Q1016

Čas: 12:19 (10:19 UTC)

Předpověď počasí

Zpráva byla vytvořena před 5 hodinami a 19 minutami, v 05:00 UTC
Předpověď platná od 18 v 06 UTC do 19 v 06 UTC
vítr z různých směrů 4 kt
Viditelnost 10 km a více
Žádná oblačnost pod 1500 m, nevyskytují se cumulonimby.
Změna
od 18 v 09 UTC do 18 v 11 UTC
Severoseverovýchodní vítr 10 kt
Změna
od 18 v 16 UTC do 18 v 18 UTC
vítr z různých směrů 4 kt

TAF: LIRQ 180500Z 1806/1906 VRB04KT CAVOK BECMG 1809/1811 03010KT BECMG 1816/1818 VRB04KT

Stav a předpovědi počasí z více než 4 000 letišť (zprávy METAR a TAF).

Červené a žluté tečky na mapě představují dostupné meteorologické stanice.

Když kurzor umístíte na tečku, zobrazí se název stanice.

Pak kliknutím zobrazíte stav a předpověď počasí.

Chcete-li změnit mapu, kliknutím na zelené tlačítko se znaménkem +mapu přiblížíte, kliknutím na zelené tlačítko se znaménkem – mapu oddálíte a kliknutím na zelené šipky přejdete na sousední mapy.


METAR-TAF: